sensor_id;sensor_type;location;lat;lon;timestamp;temperature;humidity
75615;DHT22;64199;48.578;-4.520;2024-02-21T13:53:08;23.50;57.00
75615;DHT22;64199;48.578;-4.520;2024-02-21T14:00:28;23.90;55.80
75615;DHT22;64199;48.578;-4.520;2024-02-21T14:02:54;23.90;56.10
75615;DHT22;64199;48.578;-4.520;2024-02-21T14:05:20;24.00;55.00
75615;DHT22;64199;48.578;-4.520;2024-02-21T14:07:46;24.10;54.90
75615;DHT22;64199;48.578;-4.520;2024-02-21T14:10:12;24.10;54.40
75615;DHT22;64199;48.578;-4.520;2024-02-21T14:12:37;24.10;54.20
75615;DHT22;64199;48.578;-4.520;2024-02-21T14:15:04;24.20;53.90
75615;DHT22;64199;48.578;-4.520;2024-02-21T14:17:30;24.20;53.60
75615;DHT22;64199;48.578;-4.520;2024-02-21T14:19:56;24.20;53.60
75615;DHT22;64199;48.578;-4.520;2024-02-21T14:22:22;24.30;53.50
75615;DHT22;64199;48.578;-4.520;2024-02-21T14:24:48;24.30;53.10
75615;DHT22;64199;48.578;-4.520;2024-02-21T14:27:13;24.30;53.20
75615;DHT22;64199;48.578;-4.520;2024-02-21T14:29:39;24.20;53.00
75615;DHT22;64199;48.578;-4.520;2024-02-21T14:32:05;24.30;52.80
75615;DHT22;64199;48.578;-4.520;2024-02-21T14:34:32;24.30;52.70
75615;DHT22;64199;48.578;-4.520;2024-02-21T14:39:24;24.30;52.60
75615;DHT22;64199;48.578;-4.520;2024-02-21T14:44:16;24.30;55.30
75615;DHT22;64199;48.578;-4.520;2024-02-21T14:49:08;24.20;52.20
75615;DHT22;64199;48.578;-4.520;2024-02-21T14:51:34;24.20;52.40
75615;DHT22;64199;48.578;-4.520;2024-02-21T14:56:26;24.10;52.40
75615;DHT22;64199;48.578;-4.520;2024-02-21T14:58:52;24.00;52.40
75615;DHT22;64199;48.578;-4.520;2024-02-21T15:03:43;23.90;52.20
75615;DHT22;64199;48.578;-4.520;2024-02-21T15:08:36;24.00;52.00
75615;DHT22;64199;48.578;-4.520;2024-02-21T15:11:02;23.90;51.90
75615;DHT22;64199;48.578;-4.520;2024-02-21T15:13:28;23.60;56.50
75615;DHT22;64199;48.578;-4.520;2024-02-21T15:18:22;23.90;51.90
75615;DHT22;64199;48.578;-4.520;2024-02-21T15:25:41;23.80;52.10
75615;DHT22;64199;48.578;-4.520;2024-02-21T15:28:08;23.90;54.50
75615;DHT22;64199;48.578;-4.520;2024-02-21T15:30:35;23.70;52.20
75615;DHT22;64199;48.578;-4.520;2024-02-21T15:33:01;23.60;52.20
75615;DHT22;64199;48.578;-4.520;2024-02-21T15:35:30;23.50;52.20
75615;DHT22;64199;48.578;-4.520;2024-02-21T15:37:57;23.80;62.00
75615;DHT22;64199;48.578;-4.520;2024-02-21T15:42:49;23.50;51.80
75615;DHT22;64199;48.578;-4.520;2024-02-21T15:45:16;23.50;52.00
75615;DHT22;64199;48.578;-4.520;2024-02-21T15:47:41;23.40;52.10
75615;DHT22;64199;48.578;-4.520;2024-02-21T15:50:08;23.40;52.60
75615;DHT22;64199;48.578;-4.520;2024-02-21T15:57:29;23.30;52.40
75615;DHT22;64199;48.578;-4.520;2024-02-21T15:59:56;23.20;52.30
75615;DHT22;64199;48.578;-4.520;2024-02-21T16:02:22;23.20;52.30
75615;DHT22;64199;48.578;-4.520;2024-02-21T16:07:16;23.10;52.10
75615;DHT22;64199;48.578;-4.520;2024-02-21T16:09:43;23.10;52.30
75615;DHT22;64199;48.578;-4.520;2024-02-21T16:12:10;23.10;52.40
75615;DHT22;64199;48.578;-4.520;2024-02-21T16:14:36;23.10;52.60
75615;DHT22;64199;48.578;-4.520;2024-02-21T16:21:59;23.10;52.60
75615;DHT22;64199;48.578;-4.520;2024-02-21T16:24:26;23.10;52.90
75615;DHT22;64199;48.578;-4.520;2024-02-21T16:31:44;23.00;52.90
75615;DHT22;64199;48.578;-4.520;2024-02-21T16:34:10;23.00;52.90
75615;DHT22;64199;48.578;-4.520;2024-02-21T16:36:37;22.90;53.00
75615;DHT22;64199;48.578;-4.520;2024-02-21T16:39:04;22.90;52.50
75615;DHT22;64199;48.578;-4.520;2024-02-21T16:46:25;23.00;52.50
75615;DHT22;64199;48.578;-4.520;2024-02-21T16:56:09;22.90;53.10
75615;DHT22;64199;48.578;-4.520;2024-02-21T16:58:35;22.90;53.10
75615;DHT22;64199;48.578;-4.520;2024-02-21T17:01:08;22.90;53.60
75615;DHT22;64199;48.578;-4.520;2024-02-21T17:06:02;22.90;53.10
75615;DHT22;64199;48.578;-4.520;2024-02-21T17:08:31;22.90;53.10
75615;DHT22;64199;48.578;-4.520;2024-02-21T17:10:57;23.00;53.10
75615;DHT22;64199;48.578;-4.520;2024-02-21T17:15:50;23.00;53.00
75615;DHT22;64199;48.578;-4.520;2024-02-21T17:18:16;23.20;52.70
75615;DHT22;64199;48.578;-4.520;2024-02-21T17:20:45;23.20;52.70
75615;DHT22;64199;48.578;-4.520;2024-02-21T17:25:41;23.20;52.70
75615;DHT22;64199;48.578;-4.520;2024-02-21T17:28:07;23.10;53.20
75615;DHT22;64199;48.578;-4.520;2024-02-21T17:30:33;23.10;53.50
75615;DHT22;64199;48.578;-4.520;2024-02-21T17:33:03;23.10;53.50
75615;DHT22;64199;48.578;-4.520;2024-02-21T17:37:55;23.10;53.00
75615;DHT22;64199;48.578;-4.520;2024-02-21T17:40:21;24.10;54.20
75615;DHT22;64199;48.578;-4.520;2024-02-21T17:42:47;23.20;53.50
75615;DHT22;64199;48.578;-4.520;2024-02-21T17:45:13;23.30;53.60
75615;DHT22;64199;48.578;-4.520;2024-02-21T17:47:39;23.20;53.50
75615;DHT22;64199;48.578;-4.520;2024-02-21T17:50:05;23.30;53.60
75615;DHT22;64199;48.578;-4.520;2024-02-21T17:52:31;23.30;53.60
75615;DHT22;64199;48.578;-4.520;2024-02-21T17:57:23;23.30;53.00
75615;DHT22;64199;48.578;-4.520;2024-02-21T17:59:49;23.40;52.90
75615;DHT22;64199;48.578;-4.520;2024-02-21T18:02:14;23.40;53.50
75615;DHT22;64199;48.578;-4.520;2024-02-21T18:04:45;23.40;53.50
75615;DHT22;64199;48.578;-4.520;2024-02-21T18:07:13;23.40;53.50
75615;DHT22;64199;48.578;-4.520;2024-02-21T18:09:38;23.40;53.40
75615;DHT22;64199;48.578;-4.520;2024-02-21T18:12:04;23.40;52.90
75615;DHT22;64199;48.578;-4.520;2024-02-21T18:14:30;23.50;52.50
75615;DHT22;64199;48.578;-4.520;2024-02-21T18:16:56;23.50;53.10
75615;DHT22;64199;48.578;-4.520;2024-02-21T18:21:48;23.60;52.50
75615;DHT22;64199;48.578;-4.520;2024-02-21T18:24:14;23.50;52.50
75615;DHT22;64199;48.578;-4.520;2024-02-21T18:26:40;23.50;52.60
75615;DHT22;64199;48.578;-4.520;2024-02-21T18:29:06;23.60;52.50
75615;DHT22;64199;48.578;-4.520;2024-02-21T18:31:34;23.60;52.50
75615;DHT22;64199;48.578;-4.520;2024-02-21T18:36:29;23.50;52.60
75615;DHT22;64199;48.578;-4.520;2024-02-21T18:38:55;23.60;52.70
75615;DHT22;64199;48.578;-4.520;2024-02-21T18:41:21;23.60;52.60
75615;DHT22;64199;48.578;-4.520;2024-02-21T18:43:47;23.50;52.60
75615;DHT22;64199;48.578;-4.520;2024-02-21T18:46:14;23.60;53.20
75615;DHT22;64199;48.578;-4.520;2024-02-21T18:48:40;23.60;53.20
75615;DHT22;64199;48.578;-4.520;2024-02-21T18:51:16;23.60;53.20
75615;DHT22;64199;48.578;-4.520;2024-02-21T18:53:42;23.70;53.20
75615;DHT22;64199;48.578;-4.520;2024-02-21T18:56:08;23.70;53.10
75615;DHT22;64199;48.578;-4.520;2024-02-21T18:58:34;23.70;53.20
75615;DHT22;64199;48.578;-4.520;2024-02-21T19:01:00;23.70;53.20
75615;DHT22;64199;48.578;-4.520;2024-02-21T19:03:26;23.70;53.40
75615;DHT22;64199;48.578;-4.520;2024-02-21T19:05:52;23.70;53.50
75615;DHT22;64199;48.578;-4.520;2024-02-21T19:08:18;23.80;53.60
75615;DHT22;64199;48.578;-4.520;2024-02-21T19:10:44;23.80;53.70
75615;DHT22;64199;48.578;-4.520;2024-02-21T19:13:10;23.80;53.80
75615;DHT22;64199;48.578;-4.520;2024-02-21T19:15:37;23.80;53.70
75615;DHT22;64199;48.578;-4.520;2024-02-21T19:18:06;23.80;53.60
75615;DHT22;64199;48.578;-4.520;2024-02-21T19:20:32;23.80;53.60
75615;DHT22;64199;48.578;-4.520;2024-02-21T19:22:58;23.90;53.60
75615;DHT22;64199;48.578;-4.520;2024-02-21T19:25:24;23.90;53.60
75615;DHT22;64199;48.578;-4.520;2024-02-21T19:27:51;23.90;53.60
75615;DHT22;64199;48.578;-4.520;2024-02-21T19:30:17;23.90;53.50
75615;DHT22;64199;48.578;-4.520;2024-02-21T19:32:43;23.90;53.50
75615;DHT22;64199;48.578;-4.520;2024-02-21T19:35:09;23.90;53.50
75615;DHT22;64199;48.578;-4.520;2024-02-21T19:37:40;23.90;53.50
75615;DHT22;64199;48.578;-4.520;2024-02-21T19:40:07;24.00;53.60
75615;DHT22;64199;48.578;-4.520;2024-02-21T19:42:33;24.00;53.60
75615;DHT22;64199;48.578;-4.520;2024-02-21T19:44:59;24.00;53.60
75615;DHT22;64199;48.578;-4.520;2024-02-21T19:47:25;24.00;53.50
75615;DHT22;64199;48.578;-4.520;2024-02-21T19:49:52;24.10;53.60
75615;DHT22;64199;48.578;-4.520;2024-02-21T19:52:18;24.10;53.50
75615;DHT22;64199;48.578;-4.520;2024-02-21T19:54:44;24.10;53.50
75615;DHT22;64199;48.578;-4.520;2024-02-21T19:57:09;24.10;53.50
75615;DHT22;64199;48.578;-4.520;2024-02-21T19:59:35;24.10;53.50
75615;DHT22;64199;48.578;-4.520;2024-02-21T20:02:03;24.20;53.60
75615;DHT22;64199;48.578;-4.520;2024-02-21T20:04:29;24.20;53.60
75615;DHT22;64199;48.578;-4.520;2024-02-21T20:06:54;24.20;53.60
75615;DHT22;64199;48.578;-4.520;2024-02-21T20:09:20;24.20;53.60
75615;DHT22;64199;48.578;-4.520;2024-02-21T20:11:46;24.30;53.70
75615;DHT22;64199;48.578;-4.520;2024-02-21T20:14:12;24.30;53.70
75615;DHT22;64199;48.578;-4.520;2024-02-21T20:16:38;24.30;53.70
75615;DHT22;64199;48.578;-4.520;2024-02-21T20:19:04;24.30;53.70
75615;DHT22;64199;48.578;-4.520;2024-02-21T20:21:30;24.40;53.70
75615;DHT22;64199;48.578;-4.520;2024-02-21T20:23:56;24.40;53.70
75615;DHT22;64199;48.578;-4.520;2024-02-21T20:26:23;24.40;53.60
75615;DHT22;64199;48.578;-4.520;2024-02-21T20:28:49;24.40;53.60
75615;DHT22;64199;48.578;-4.520;2024-02-21T20:31:16;24.40;53.50
75615;DHT22;64199;48.578;-4.520;2024-02-21T20:33:46;24.40;53.50
75615;DHT22;64199;48.578;-4.520;2024-02-21T20:36:12;24.50;53.50
75615;DHT22;64199;48.578;-4.520;2024-02-21T20:38:38;24.50;53.50
75615;DHT22;64199;48.578;-4.520;2024-02-21T20:41:04;24.50;53.50
75615;DHT22;64199;48.578;-4.520;2024-02-21T20:43:29;24.50;53.50
75615;DHT22;64199;48.578;-4.520;2024-02-21T20:45:56;24.60;53.50
75615;DHT22;64199;48.578;-4.520;2024-02-21T20:48:21;24.60;53.40
75615;DHT22;64199;48.578;-4.520;2024-02-21T20:50:47;24.60;53.20
75615;DHT22;64199;48.578;-4.520;2024-02-21T20:53:13;24.60;53.20
75615;DHT22;64199;48.578;-4.520;2024-02-21T20:55:39;24.60;53.10
75615;DHT22;64199;48.578;-4.520;2024-02-21T20:58:06;24.60;53.10
75615;DHT22;64199;48.578;-4.520;2024-02-21T21:00:32;24.60;53.50
75615;DHT22;64199;48.578;-4.520;2024-02-21T21:02:59;24.60;53.60
75615;DHT22;64199;48.578;-4.520;2024-02-21T21:05:25;24.60;53.50
75615;DHT22;64199;48.578;-4.520;2024-02-21T21:07:51;24.70;53.60
75615;DHT22;64199;48.578;-4.520;2024-02-21T21:10:17;24.70;53.60
75615;DHT22;64199;48.578;-4.520;2024-02-21T21:12:43;24.70;53.60
75615;DHT22;64199;48.578;-4.520;2024-02-21T21:15:09;24.70;53.50
75615;DHT22;64199;48.578;-4.520;2024-02-21T21:17:35;24.80;53.40
75615;DHT22;64199;48.578;-4.520;2024-02-21T21:20:01;24.80;53.30
75615;DHT22;64199;48.578;-4.520;2024-02-21T21:22:37;24.80;53.20
75615;DHT22;64199;48.578;-4.520;2024-02-21T21:25:06;24.80;53.20
75615;DHT22;64199;48.578;-4.520;2024-02-21T21:27:32;24.80;53.20
75615;DHT22;64199;48.578;-4.520;2024-02-21T21:29:58;24.80;53.10
75615;DHT22;64199;48.578;-4.520;2024-02-21T21:32:24;24.90;53.20
75615;DHT22;64199;48.578;-4.520;2024-02-21T21:34:50;24.90;53.20
75615;DHT22;64199;48.578;-4.520;2024-02-21T21:37:16;24.90;53.20
75615;DHT22;64199;48.578;-4.520;2024-02-21T21:39:42;24.90;53.20
75615;DHT22;64199;48.578;-4.520;2024-02-21T21:42:13;24.90;53.20
75615;DHT22;64199;48.578;-4.520;2024-02-21T21:44:39;24.90;53.20
75615;DHT22;64199;48.578;-4.520;2024-02-21T21:47:05;25.00;53.20
75615;DHT22;64199;48.578;-4.520;2024-02-21T21:49:30;25.00;53.20
75615;DHT22;64199;48.578;-4.520;2024-02-21T21:51:58;25.00;53.20
75615;DHT22;64199;48.578;-4.520;2024-02-21T21:54:24;25.00;53.10
75615;DHT22;64199;48.578;-4.520;2024-02-21T21:56:49;25.00;53.00
75615;DHT22;64199;48.578;-4.520;2024-02-21T21:59:16;25.10;53.10
75615;DHT22;64199;48.578;-4.520;2024-02-21T22:01:41;25.10;53.10
75615;DHT22;64199;48.578;-4.520;2024-02-21T22:04:07;25.10;53.00
75615;DHT22;64199;48.578;-4.520;2024-02-21T22:06:33;25.10;53.00
75615;DHT22;64199;48.578;-4.520;2024-02-21T22:08:59;25.10;53.00
75615;DHT22;64199;48.578;-4.520;2024-02-21T22:11:24;25.10;53.00
75615;DHT22;64199;48.578;-4.520;2024-02-21T22:13:50;25.10;52.90
75615;DHT22;64199;48.578;-4.520;2024-02-21T22:16:16;25.20;52.90
75615;DHT22;64199;48.578;-4.520;2024-02-21T22:18:42;25.20;52.90
75615;DHT22;64199;48.578;-4.520;2024-02-21T22:21:08;25.20;52.80
75615;DHT22;64199;48.578;-4.520;2024-02-21T22:23:33;25.20;52.80
75615;DHT22;64199;48.578;-4.520;2024-02-21T22:25:59;25.20;52.80
75615;DHT22;64199;48.578;-4.520;2024-02-21T22:28:25;25.20;52.80
75615;DHT22;64199;48.578;-4.520;2024-02-21T22:30:51;25.20;52.70
75615;DHT22;64199;48.578;-4.520;2024-02-21T22:33:16;25.20;52.70
75615;DHT22;64199;48.578;-4.520;2024-02-21T22:35:42;25.20;52.70
75615;DHT22;64199;48.578;-4.520;2024-02-21T22:38:08;25.30;52.80
75615;DHT22;64199;48.578;-4.520;2024-02-21T22:40:34;25.20;52.80
75615;DHT22;64199;48.578;-4.520;2024-02-21T22:43:01;25.30;52.80
75615;DHT22;64199;48.578;-4.520;2024-02-21T22:45:26;25.30;52.70
75615;DHT22;64199;48.578;-4.520;2024-02-21T22:47:52;25.30;52.60
75615;DHT22;64199;48.578;-4.520;2024-02-21T22:50:18;25.30;52.60
75615;DHT22;64199;48.578;-4.520;2024-02-21T22:52:44;25.30;52.60
75615;DHT22;64199;48.578;-4.520;2024-02-21T22:55:10;25.30;52.60
75615;DHT22;64199;48.578;-4.520;2024-02-21T22:57:37;25.30;52.50
75615;DHT22;64199;48.578;-4.520;2024-02-21T23:00:07;25.40;52.50
75615;DHT22;64199;48.578;-4.520;2024-02-21T23:02:36;25.30;53.00
75615;DHT22;64199;48.578;-4.520;2024-02-21T23:05:03;25.30;52.40
75615;DHT22;64199;48.578;-4.520;2024-02-21T23:07:33;25.30;52.30
75615;DHT22;64199;48.578;-4.520;2024-02-21T23:09:59;25.30;52.00
75615;DHT22;64199;48.578;-4.520;2024-02-21T23:12:25;25.20;51.80
75615;DHT22;64199;48.578;-4.520;2024-02-21T23:14:54;25.20;51.80
75615;DHT22;64199;48.578;-4.520;2024-02-21T23:17:20;25.20;51.70
75615;DHT22;64199;48.578;-4.520;2024-02-21T23:19:46;25.10;51.70
75615;DHT22;64199;48.578;-4.520;2024-02-21T23:22:12;25.10;51.70
75615;DHT22;64199;48.578;-4.520;2024-02-21T23:24:38;25.10;51.70
75615;DHT22;64199;48.578;-4.520;2024-02-21T23:27:04;25.00;51.70
75615;DHT22;64199;48.578;-4.520;2024-02-21T23:29:30;25.00;51.70
75615;DHT22;64199;48.578;-4.520;2024-02-21T23:31:56;25.00;51.70
75615;DHT22;64199;48.578;-4.520;2024-02-21T23:34:21;24.90;51.60
75615;DHT22;64199;48.578;-4.520;2024-02-21T23:36:47;24.90;51.70
75615;DHT22;64199;48.578;-4.520;2024-02-21T23:39:13;24.80;51.70
75615;DHT22;64199;48.578;-4.520;2024-02-21T23:41:39;24.80;51.70
75615;DHT22;64199;48.578;-4.520;2024-02-21T23:44:05;24.80;51.70
75615;DHT22;64199;48.578;-4.520;2024-02-21T23:46:30;24.70;51.70
75615;DHT22;64199;48.578;-4.520;2024-02-21T23:48:58;24.70;51.70
75615;DHT22;64199;48.578;-4.520;2024-02-21T23:51:27;24.60;51.70
75615;DHT22;64199;48.578;-4.520;2024-02-21T23:53:53;24.60;51.60
75615;DHT22;64199;48.578;-4.520;2024-02-21T23:56:19;24.60;51.60
75615;DHT22;64199;48.578;-4.520;2024-02-21T23:58:44;24.50;51.60
